x

Portlock Bank- 76nm Ene Of Kodiak, Ak (46080) Wave Buoy

10:50am - Tue 25th Nov 2014 All times are AKST. -9 hours from GMT.

  • Sig Wave height 4.6ft
  • Peak Period 9s
  • Average Period 6s
  • Wind
    11mph, 13mph gusts
  • Sea Temp 47°f
  • Air Temp 44°f
  • Sea Pressure 1022.2mb
  • Portlock Bank- 76nm Ene Of Kodiak, Ak
  • Portlock Bank- 76nm Ene Of Kodiak, Ak

More Historic Weather Station data

Upgrade to MSW Pro to gain access to the past 30 days of data for over 8000 Wavebouys and Weather Stations around the globe.

Join Pro

Comparision Forecast

View Surf forecast
   
Tue 11/25 10:50am 4.5ft 9s 6s 11 13 mph 1022.2mb 47f 44f
9:50am 5ft 9s 5s 11 13 mph 1021.3mb 47f 44f
8:50am 5ft 10s 6s 11 13 mph 1020.5mb 47f 45f
7:50am 5ft 8s 6s 9 11 mph 1019.6mb 47f 45f
6:50am 5.5ft 8s 7s 11 13 mph 1018.6mb 47f 45f
5:50am 5ft 9s 7s 9 11 mph 1017.6mb 47f 45f
4:50am 5ft 8s 7s 9 11 mph 1016.9mb 47f 45f
3:50am 5.5ft 9s 7s 7 9 mph 1016.1mb 47f 45f
2:50am 5ft 8s 7s 7 9 mph 1015.2mb 47f 45f
1:50am 5ft 8s 7s 7
mph
1014.5mb 47f 45f
12:50am 5.5ft 9s 7s 4 7 mph 1014mb 47f 45f
Mon 11/24 11:50pm 5ft 10s 6s 4 7 mph 1013.2mb 47f 45f
10:50pm 5ft 10s 6s 4 7 mph 1012.1mb 47f 45f
9:50pm 6ft 9s 6s 4 7 mph 1011.3mb 47f 44f
8:50pm 6.5ft 10s 6s 4 7 mph 1010.4mb 47f 44f
7:50pm 6ft 10s 6s 4 7 mph 1009.5mb 47f 44f
6:50pm 6ft 11s 7s 9 11 mph 1008.6mb 47f 45f
5:50pm 6.5ft 11s 7s 4 7 mph 1007.8mb 47f 44f
4:50pm 6ft 10s 7s 4 7 mph 1006.9mb 47f 45f
3:50pm 6ft 10s 7s 4 7 mph 1006.1mb 47f 46f
2:50pm 6ft 8s 7s  -  2 mph 1005.6mb 47f 45f
1:50pm 6ft 10s 7s 4
mph
1005.2mb 47f 46f
12:50pm 6.5ft 10s 7s 2 4 mph 1004.9mb 47f 44f
11:50am 7ft 10s 7s 4 7 mph 1004.7mb 47f 45f
10:50am 7ft 10s 7s 4 7 mph 1004mb 47f 45f
9:50am 7ft 9s 7s 9 11 mph 1003.4mb 47f 44f
8:50am 7ft 10s 6s 7 9 mph 1002.5mb 47f 45f
7:50am 8ft 10s 7s 9
mph
1002.1mb 47f 44f
6:50am 7ft 9s 7s 7 9 mph 1001.4mb 47f 45f
5:50am 7ft 11s 7s 7 9 mph 1001.1mb 47f 44f
4:50am 8ft 11s 7s 7 9 mph 1000.6mb 47f 44f
3:50am 7ft 11s 7s 9 13 mph 1000.3mb 47f 44f
2:50am 7ft 11s 7s 7 9 mph 1000mb 47f 44f
1:50am 7ft 11s 7s 9 13 mph 999.7mb 47f 45f
12:50am 7ft 11s 7s 13 18 mph 999.5mb 47f 46f
Sun 11/23 11:50pm 7ft 10s 7s 11 16 mph 999.2mb 47f 46f
10:50pm 7ft 11s 7s 13 16 mph 998.8mb 47f 45f
9:50pm 8ft 11s 7s 9 13 mph 998.6mb 47f 46f
8:50pm 8.5ft 11s 7s 11 13 mph 998.2mb 47f 45f
7:50pm 9ft 11s 8s 11 13 mph 997.7mb 47f 45f
6:50pm 8ft 11s 7s 9 11 mph 997.1mb 47f 44f
5:50pm 9ft 11s 8s 9 11 mph 996.5mb 47f 45f
4:50pm 8.5ft 11s 8s 9 11 mph 995.8mb 47f 45f
3:50pm 8.5ft 11s 8s 9 11 mph 995.2mb 47f 45f
2:50pm 8ft 11s 8s 9 13 mph 994.8mb 47f 45f
1:50pm 7.5ft 11s 7s 9 11 mph 994.4mb 47f 45f
12:50pm 8ft 10s 7s 11 13 mph 994.1mb 47f 45f
11:50am 7ft 10s 7s 9 13 mph 993.7mb 47f 44f
10:50am 7ft 10s 7s 9 11 mph 993.3mb 47f 44f
9:50am 7ft 11s 7s 11 13 mph 992.6mb 47f 44f
8:50am 8ft 11s 7s 13 16 mph 992mb 47f 44f
7:50am 9.5ft 11s 7s 11 13 mph 991.6mb 47f 44f
6:50am 9ft 11s  -  11 16 mph 991.3mb 47f 44f
5:50am 9.5ft 13s 8s 11 13 mph 991mb 47f 44f
4:50am 9ft 11s 8s 9 11 mph 990.8mb 47f 44f
3:50am 9ft 11s 8s 11 16 mph 990.6mb 47f 44f
2:50am 8.5ft 11s 7s 9 11 mph 990.3mb 47f 44f
1:50am 8ft 11s 7s 18 20 mph 989.9mb 47f 44f
12:50am 8ft 11s 7s 16 20 mph 989.8mb 47f 44f
Sat 11/22 11:50pm 8ft 10s 7s 13 16 mph 989.3mb 47f 44f
10:50pm 8.5ft 11s 7s 11 13 mph 989mb 47f 45f
9:50pm 8.5ft 13s 7s 11 18 mph 988.5mb 47f 44f
8:50pm 9.5ft 11s 7s 13 16 mph 987.9mb 47f 45f
7:50pm 9ft 11s 7s 13 18 mph 987.5mb 47f 45f
6:50pm 9.5ft 10s 7s 13 18 mph 987.1mb 47f 45f
5:50pm 10ft 11s 7s 16 18 mph 986.4mb 47f 45f
4:50pm 10ft 12s 8s 16 18 mph 985.6mb 47f 45f
3:50pm 9ft 10s 8s 11 13 mph 985mb 47f 45f
2:50pm 10ft 12s 8s 9 13 mph 984.6mb 47f 44f
1:50pm 10ft 9s 8s 13 18 mph 984mb 47f 44f
12:50pm 11ft 12s 8s 16 20 mph 983.5mb 47f 43f
11:50am 11ft 11s 8s 9 13 mph 983.2mb 47f 43f
10:50am 11ft 11s 8s 9 11 mph 982.6mb 47f 42f
9:50am 11ft 12s 8s 11 13 mph 982mb 47f 42f
8:50am 10.5ft 13s 8s 13 16 mph 981.4mb 47f 43f
7:50am 11.5ft 11s 8s 11 16 mph 980.9mb 47f 43f
6:50am 11.5ft 13s 8s 13 16 mph 980.6mb 47f 43f
5:50am 11ft 11s 8s 13 16 mph 980.1mb 47f 43f
4:50am 12ft 12s 8s 13 16 mph 979.8mb 47f 44f
3:50am 12ft 12s 8s 11 16 mph 979.4mb 47f 45f
2:50am 12ft 11s 8s 13 16 mph 979mb 47f 45f
1:50am 13.5ft 11s 8s 11 16 mph 978.8mb 47f 44f
12:50am 12ft 12s 8s 11 13 mph 978.6mb 47f 44f
Fri 11/21 11:50pm 13ft 12s 8s 11 13 mph 978.1mb 47f 44f
10:50pm 12ft 11s 8s 13 16 mph 977.7mb 46f 45f
9:50pm 12ft 13s 8s 13 18 mph 977.3mb 47f 45f
8:50pm 13ft 12s 8s 13 16 mph 976.9mb 47f 44f